sensor_id;sensor_type;location;lat;lon;timestamp;pressure;altitude;pressure_sealevel;temperature;humidity
56737;BME280;42618;51.226;4.910;2022-08-21T00:00:22;49601.41;;;-146.94;82.19
56737;BME280;42618;51.226;4.910;2022-08-21T00:03:01;49571.50;;;-146.94;82.24
56737;BME280;42618;51.226;4.910;2022-08-21T00:05:29;49587.47;;;-146.94;82.64
56737;BME280;42618;51.226;4.910;2022-08-21T00:07:56;49555.56;;;-146.94;82.11
56737;BME280;42618;51.226;4.910;2022-08-21T00:10:24;49559.56;;;-146.94;82.11
56737;BME280;42618;51.226;4.910;2022-08-21T00:12:51;49543.59;;;-146.94;81.41
56737;BME280;42618;51.226;4.910;2022-08-21T00:15:23;49579.47;;;-146.94;82.47
56737;BME280;42618;51.226;4.910;2022-08-21T00:17:49;49555.56;;;-146.94;82.04
56737;BME280;42618;51.226;4.910;2022-08-21T00:20:17;49549.59;;;-146.94;81.83
56737;BME280;42618;51.226;4.910;2022-08-21T00:22:44;49539.63;;;-146.94;83.39
56737;BME280;42618;51.226;4.910;2022-08-21T00:25:12;49527.66;;;-146.94;83.29
56737;BME280;42618;51.226;4.910;2022-08-21T00:27:40;49579.47;;;-146.94;82.02
56737;BME280;42618;51.226;4.910;2022-08-21T00:30:10;49583.47;;;-146.94;82.16
56737;BME280;42618;51.226;4.910;2022-08-21T00:32:49;49559.56;;;-146.94;82.54
56737;BME280;42618;51.226;4.910;2022-08-21T00:35:18;49571.50;;;-146.94;83.05
56737;BME280;42618;51.226;4.910;2022-08-21T00:37:46;49615.38;;;-146.94;82.92
56737;BME280;42618;51.226;4.910;2022-08-21T00:40:15;49567.53;;;-146.94;82.80
56737;BME280;42618;51.226;4.910;2022-08-21T00:42:43;49591.44;;;-146.94;82.29
56737;BME280;42618;51.226;4.910;2022-08-21T00:45:20;49563.53;;;-146.94;82.71
56737;BME280;42618;51.226;4.910;2022-08-21T00:47:47;49553.56;;;-146.94;82.98
56737;BME280;42618;51.226;4.910;2022-08-21T00:50:14;49579.47;;;-146.94;83.20
56737;BME280;42618;51.226;4.910;2022-08-21T00:52:50;49567.53;;;-146.94;82.82
56737;BME280;42618;51.226;4.910;2022-08-21T00:55:19;49583.47;;;-146.94;83.29
56737;BME280;42618;51.226;4.910;2022-08-21T00:57:51;49581.47;;;-146.94;83.22
56737;BME280;42618;51.226;4.910;2022-08-21T01:00:22;49571.50;;;-146.94;83.08
56737;BME280;42618;51.226;4.910;2022-08-21T01:02:50;49571.50;;;-146.94;83.23
56737;BME280;42618;51.226;4.910;2022-08-21T01:05:16;49599.41;;;-146.94;83.02
56737;BME280;42618;51.226;4.910;2022-08-21T01:07:43;49575.50;;;-146.94;82.31
56737;BME280;42618;51.226;4.910;2022-08-21T01:10:11;49567.53;;;-146.94;82.77
56737;BME280;42618;51.226;4.910;2022-08-21T01:12:51;49593.44;;;-146.94;82.45
56737;BME280;42618;51.226;4.910;2022-08-21T01:15:19;49561.53;;;-146.94;82.10
56737;BME280;42618;51.226;4.910;2022-08-21T01:17:48;49555.56;;;-146.94;82.11
56737;BME280;42618;51.226;4.910;2022-08-21T01:20:15;49583.47;;;-146.94;82.50
56737;BME280;42618;51.226;4.910;2022-08-21T01:22:43;49543.59;;;-146.94;82.54
56737;BME280;42618;51.226;4.910;2022-08-21T01:25:11;49591.44;;;-146.94;82.05
56737;BME280;42618;51.226;4.910;2022-08-21T01:27:38;49565.53;;;-146.94;82.35
56737;BME280;42618;51.226;4.910;2022-08-21T01:30:25;49579.47;;;-146.94;82.72
56737;BME280;42618;51.226;4.910;2022-08-21T01:32:54;49555.56;;;-146.94;82.54
56737;BME280;42618;51.226;4.910;2022-08-21T01:35:21;49583.47;;;-146.94;83.04
56737;BME280;42618;51.226;4.910;2022-08-21T01:37:48;49583.47;;;-146.94;84.18
56737;BME280;42618;51.226;4.910;2022-08-21T01:40:16;49605.41;;;-146.94;83.83
56737;BME280;42618;51.226;4.910;2022-08-21T01:42:44;49571.50;;;-146.94;83.52
56737;BME280;42618;51.226;4.910;2022-08-21T01:45:12;49591.44;;;-146.94;83.21
56737;BME280;42618;51.226;4.910;2022-08-21T01:47:39;49579.47;;;-146.94;83.95
56737;BME280;42618;51.226;4.910;2022-08-21T01:50:10;49599.41;;;-146.94;83.55
56737;BME280;42618;51.226;4.910;2022-08-21T01:52:37;49597.44;;;-146.94;82.73
56737;BME280;42618;51.226;4.910;2022-08-21T01:55:08;49563.53;;;-146.94;83.19
56737;BME280;42618;51.226;4.910;2022-08-21T01:57:36;49569.50;;;-146.94;83.94
56737;BME280;42618;51.226;4.910;2022-08-21T02:00:10;49583.47;;;-146.94;82.78
56737;BME280;42618;51.226;4.910;2022-08-21T02:02:38;49559.56;;;-146.94;82.98
56737;BME280;42618;51.226;4.910;2022-08-21T02:05:05;49571.50;;;-146.94;83.47
56737;BME280;42618;51.226;4.910;2022-08-21T02:07:37;49579.47;;;-146.94;84.32
56737;BME280;42618;51.226;4.910;2022-08-21T02:10:07;49583.47;;;-146.94;84.21
56737;BME280;42618;51.226;4.910;2022-08-21T02:12:34;49609.38;;;-146.94;84.58
56737;BME280;42618;51.226;4.910;2022-08-21T02:15:03;49605.41;;;-146.94;84.36
56737;BME280;42618;51.226;4.910;2022-08-21T02:17:47;49611.38;;;-146.94;84.38
56737;BME280;42618;51.226;4.910;2022-08-21T02:20:25;49583.47;;;-146.94;84.25
56737;BME280;42618;51.226;4.910;2022-08-21T02:22:53;49615.38;;;-146.94;84.03
56737;BME280;42618;51.226;4.910;2022-08-21T02:25:22;49569.50;;;-146.94;84.08
56737;BME280;42618;51.226;4.910;2022-08-21T02:27:50;49591.44;;;-146.94;84.43
56737;BME280;42618;51.226;4.910;2022-08-21T02:30:24;49557.56;;;-146.94;84.43
56737;BME280;42618;51.226;4.910;2022-08-21T02:32:51;49587.47;;;-146.94;84.48
56737;BME280;42618;51.226;4.910;2022-08-21T02:35:19;49599.41;;;-146.94;84.27
56737;BME280;42618;51.226;4.910;2022-08-21T02:38:03;49621.34;;;-146.94;84.77
56737;BME280;42618;51.226;4.910;2022-08-21T02:40:33;49583.47;;;-146.94;85.07
56737;BME280;42618;51.226;4.910;2022-08-21T02:43:01;49579.47;;;-146.94;84.61
56737;BME280;42618;51.226;4.910;2022-08-21T02:45:28;49599.41;;;-146.94;84.52
56737;BME280;42618;51.226;4.910;2022-08-21T02:47:59;49599.41;;;-146.94;84.51
56737;BME280;42618;51.226;4.910;2022-08-21T02:50:32;49627.31;;;-146.94;85.16
56737;BME280;42618;51.226;4.910;2022-08-21T02:53:00;49579.47;;;-146.94;85.68
56737;BME280;42618;51.226;4.910;2022-08-21T02:55:30;49587.47;;;-146.94;85.34
56737;BME280;42618;51.226;4.910;2022-08-21T02:57:57;49599.41;;;-146.94;86.34
56737;BME280;42618;51.226;4.910;2022-08-21T03:00:27;49579.47;;;-146.94;85.87
56737;BME280;42618;51.226;4.910;2022-08-21T03:02:55;49591.44;;;-146.94;85.99
56737;BME280;42618;51.226;4.910;2022-08-21T03:05:23;49585.47;;;-146.94;86.25
56737;BME280;42618;51.226;4.910;2022-08-21T03:07:50;49575.50;;;-146.94;85.94
56737;BME280;42618;51.226;4.910;2022-08-21T03:10:19;49575.50;;;-146.94;86.12
56737;BME280;42618;51.226;4.910;2022-08-21T03:12:47;49557.56;;;-146.94;87.32
56737;BME280;42618;51.226;4.910;2022-08-21T03:15:16;49599.41;;;-146.94;87.15
56737;BME280;42618;51.226;4.910;2022-08-21T03:17:44;49609.38;;;-146.94;87.31
56737;BME280;42618;51.226;4.910;2022-08-21T03:20:14;49597.44;;;-146.94;87.20
56737;BME280;42618;51.226;4.910;2022-08-21T03:22:41;49611.38;;;-146.94;87.19
56737;BME280;42618;51.226;4.910;2022-08-21T03:25:19;49623.34;;;-146.94;87.22
56737;BME280;42618;51.226;4.910;2022-08-21T03:28:06;49599.41;;;-146.94;87.45
56737;BME280;42618;51.226;4.910;2022-08-21T03:30:38;49617.38;;;-146.94;87.76
56737;BME280;42618;51.226;4.910;2022-08-21T03:33:05;49623.34;;;-146.94;87.66
56737;BME280;42618;51.226;4.910;2022-08-21T03:35:32;49585.47;;;-146.94;87.45
56737;BME280;42618;51.226;4.910;2022-08-21T03:37:58;49649.25;;;-146.94;88.05
56737;BME280;42618;51.226;4.910;2022-08-21T03:40:25;49635.31;;;-146.94;87.90
56737;BME280;42618;51.226;4.910;2022-08-21T03:42:52;49599.41;;;-146.94;87.62
56737;BME280;42618;51.226;4.910;2022-08-21T03:45:19;49587.47;;;-146.94;87.90
56737;BME280;42618;51.226;4.910;2022-08-21T03:47:55;49609.38;;;-146.94;87.70
56737;BME280;42618;51.226;4.910;2022-08-21T03:50:24;49621.34;;;-146.94;87.79
56737;BME280;42618;51.226;4.910;2022-08-21T03:52:51;49641.28;;;-146.94;88.44
56737;BME280;42618;51.226;4.910;2022-08-21T03:55:18;49613.38;;;-146.94;88.63
56737;BME280;42618;51.226;4.910;2022-08-21T03:57:45;49593.44;;;-146.94;87.90
56737;BME280;42618;51.226;4.910;2022-08-21T04:00:13;49617.38;;;-146.94;88.70
56737;BME280;42618;51.226;4.910;2022-08-21T04:02:42;49607.41;;;-146.94;88.45
56737;BME280;42618;51.226;4.910;2022-08-21T04:05:11;49633.31;;;-146.94;89.07
56737;BME280;42618;51.226;4.910;2022-08-21T04:07:38;49647.25;;;-146.94;88.75
56737;BME280;42618;51.226;4.910;2022-08-21T04:10:06;49617.38;;;-146.94;88.16
56737;BME280;42618;51.226;4.910;2022-08-21T04:12:33;49591.44;;;-146.94;88.07
56737;BME280;42618;51.226;4.910;2022-08-21T04:15:00;49591.44;;;-146.94;88.31
56737;BME280;42618;51.226;4.910;2022-08-21T04:17:28;49617.38;;;-146.94;88.28
56737;BME280;42618;51.226;4.910;2022-08-21T04:19:54;49637.28;;;-146.94;87.93
56737;BME280;42618;51.226;4.910;2022-08-21T04:22:21;49607.41;;;-146.94;87.92
56737;BME280;42618;51.226;4.910;2022-08-21T04:24:48;49599.41;;;-146.94;87.65
56737;BME280;42618;51.226;4.910;2022-08-21T04:27:16;49629.31;;;-146.94;87.80
56737;BME280;42618;51.226;4.910;2022-08-21T04:29:42;49637.28;;;-146.94;87.64
56737;BME280;42618;51.226;4.910;2022-08-21T04:32:09;49581.47;;;-146.94;87.66
56737;BME280;42618;51.226;4.910;2022-08-21T04:34:36;49601.41;;;-146.94;88.33
56737;BME280;42618;51.226;4.910;2022-08-21T04:37:03;49623.34;;;-146.94;88.00
56737;BME280;42618;51.226;4.910;2022-08-21T04:39:30;49609.38;;;-146.94;88.25
56737;BME280;42618;51.226;4.910;2022-08-21T04:41:56;49619.34;;;-146.94;88.22
56737;BME280;42618;51.226;4.910;2022-08-21T04:44:23;49623.34;;;-146.94;88.74
56737;BME280;42618;51.226;4.910;2022-08-21T04:46:50;49637.28;;;-146.94;89.14
56737;BME280;42618;51.226;4.910;2022-08-21T04:49:16;49601.41;;;-146.94;86.01
56737;BME280;42618;51.226;4.910;2022-08-21T04:51:43;49601.41;;;-146.94;85.65
56737;BME280;42618;51.226;4.910;2022-08-21T04:54:14;49607.41;;;-146.94;86.09
56737;BME280;42618;51.226;4.910;2022-08-21T04:57:15;49603.41;;;-146.94;84.48
56737;BME280;42618;51.226;4.910;2022-08-21T04:59:45;49575.50;;;-146.94;84.23
56737;BME280;42618;51.226;4.910;2022-08-21T05:02:14;49583.47;;;-146.94;83.91
56737;BME280;42618;51.226;4.910;2022-08-21T05:04:48;49599.41;;;-146.94;84.11
56737;BME280;42618;51.226;4.910;2022-08-21T05:07:20;49619.34;;;-146.94;84.21
56737;BME280;42618;51.226;4.910;2022-08-21T05:10:08;49617.38;;;-146.94;84.55
56737;BME280;42618;51.226;4.910;2022-08-21T05:12:38;49593.44;;;-146.94;84.21
56737;BME280;42618;51.226;4.910;2022-08-21T05:15:06;49585.47;;;-146.94;84.61
56737;BME280;42618;51.226;4.910;2022-08-21T05:17:38;49615.38;;;-146.94;85.24
56737;BME280;42618;51.226;4.910;2022-08-21T05:20:05;49619.34;;;-146.94;84.08
56737;BME280;42618;51.226;4.910;2022-08-21T05:22:32;49565.53;;;-146.94;84.29
56737;BME280;42618;51.226;4.910;2022-08-21T05:24:59;49587.47;;;-146.94;84.33
56737;BME280;42618;51.226;4.910;2022-08-21T05:27:26;49593.44;;;-146.94;84.07
56737;BME280;42618;51.226;4.910;2022-08-21T05:29:57;49587.47;;;-146.94;84.23
56737;BME280;42618;51.226;4.910;2022-08-21T05:32:24;49591.44;;;-146.94;83.84
56737;BME280;42618;51.226;4.910;2022-08-21T05:34:51;49587.47;;;-146.94;84.37
56737;BME280;42618;51.226;4.910;2022-08-21T05:37:17;49577.50;;;-146.94;84.11
56737;BME280;42618;51.226;4.910;2022-08-21T05:39:44;49609.38;;;-146.94;83.06
56737;BME280;42618;51.226;4.910;2022-08-21T05:42:31;49627.31;;;-146.94;83.18
56737;BME280;42618;51.226;4.910;2022-08-21T05:44:57;49607.41;;;-146.94;83.34
56737;BME280;42618;51.226;4.910;2022-08-21T05:47:25;49611.38;;;-146.94;82.72
56737;BME280;42618;51.226;4.910;2022-08-21T05:49:51;49577.50;;;-146.94;82.47
56737;BME280;42618;51.226;4.910;2022-08-21T05:52:20;49615.38;;;-146.94;82.80
56737;BME280;42618;51.226;4.910;2022-08-21T05:54:48;49595.44;;;-146.94;82.53
56737;BME280;42618;51.226;4.910;2022-08-21T05:57:14;49613.38;;;-146.94;82.48
56737;BME280;42618;51.226;4.910;2022-08-21T05:59:41;49599.41;;;-146.94;82.37
56737;BME280;42618;51.226;4.910;2022-08-21T06:02:08;49579.47;;;-146.94;81.64
56737;BME280;42618;51.226;4.910;2022-08-21T06:04:37;49633.31;;;-146.94;81.45
56737;BME280;42618;51.226;4.910;2022-08-21T06:07:04;49579.47;;;-146.94;81.00
56737;BME280;42618;51.226;4.910;2022-08-21T06:09:31;49609.38;;;-146.94;80.80
56737;BME280;42618;51.226;4.910;2022-08-21T06:12:03;49611.38;;;-146.94;81.83
56737;BME280;42618;51.226;4.910;2022-08-21T06:14:30;49571.50;;;-146.94;81.86
56737;BME280;42618;51.226;4.910;2022-08-21T06:17:06;49593.44;;;-146.94;81.58
56737;BME280;42618;51.226;4.910;2022-08-21T06:19:34;49579.47;;;-146.94;81.09
56737;BME280;42618;51.226;4.910;2022-08-21T06:22:02;49603.41;;;-146.94;81.36
56737;BME280;42618;51.226;4.910;2022-08-21T06:24:29;49619.34;;;-146.94;80.87
56737;BME280;42618;51.226;4.910;2022-08-21T06:26:56;49565.53;;;-146.94;81.71
56737;BME280;42618;51.226;4.910;2022-08-21T06:29:23;49599.41;;;-146.94;81.58
56737;BME280;42618;51.226;4.910;2022-08-21T06:31:51;49599.41;;;-146.94;81.37
56737;BME280;42618;51.226;4.910;2022-08-21T06:34:17;49625.34;;;-146.94;81.93
56737;BME280;42618;51.226;4.910;2022-08-21T06:36:44;49601.41;;;-146.94;81.47
56737;BME280;42618;51.226;4.910;2022-08-21T06:39:11;49591.44;;;-146.94;81.66
56737;BME280;42618;51.226;4.910;2022-08-21T06:41:56;49587.47;;;-146.94;81.58
56737;BME280;42618;51.226;4.910;2022-08-21T06:44:27;49611.38;;;-146.94;80.66
56737;BME280;42618;51.226;4.910;2022-08-21T06:46:54;49607.41;;;-146.94;80.82
56737;BME280;42618;51.226;4.910;2022-08-21T06:49:20;49599.41;;;-146.94;81.00
56737;BME280;42618;51.226;4.910;2022-08-21T06:51:47;49601.41;;;-146.94;80.17
56737;BME280;42618;51.226;4.910;2022-08-21T06:54:14;49561.53;;;-146.94;80.13
56737;BME280;42618;51.226;4.910;2022-08-21T06:56:40;49587.47;;;-146.94;79.96
56737;BME280;42618;51.226;4.910;2022-08-21T06:59:07;49571.50;;;-146.94;79.70
56737;BME280;42618;51.226;4.910;2022-08-21T07:01:34;49569.50;;;-146.94;80.00
56737;BME280;42618;51.226;4.910;2022-08-21T07:04:01;49621.34;;;-146.94;79.66
56737;BME280;42618;51.226;4.910;2022-08-21T07:06:28;49589.44;;;-146.94;80.04
56737;BME280;42618;51.226;4.910;2022-08-21T07:08:59;49591.44;;;-146.94;80.27
56737;BME280;42618;51.226;4.910;2022-08-21T07:11:27;49611.38;;;-146.94;80.21
56737;BME280;42618;51.226;4.910;2022-08-21T07:13:54;49563.53;;;-146.94;79.76
56737;BME280;42618;51.226;4.910;2022-08-21T07:16:23;49589.44;;;-146.94;78.84
56737;BME280;42618;51.226;4.910;2022-08-21T07:18:49;49553.56;;;-146.94;79.57
56737;BME280;42618;51.226;4.910;2022-08-21T07:21:16;49595.44;;;-146.94;78.12
56737;BME280;42618;51.226;4.910;2022-08-21T07:23:50;49585.47;;;-146.94;78.74
56737;BME280;42618;51.226;4.910;2022-08-21T07:26:20;49553.56;;;-146.94;78.08
56737;BME280;42618;51.226;4.910;2022-08-21T07:28:48;49587.47;;;-146.94;78.13
56737;BME280;42618;51.226;4.910;2022-08-21T07:31:17;49597.44;;;-146.94;77.32
56737;BME280;42618;51.226;4.910;2022-08-21T07:33:45;49571.50;;;-146.94;77.34
56737;BME280;42618;51.226;4.910;2022-08-21T07:36:12;49595.44;;;-146.94;77.22
56737;BME280;42618;51.226;4.910;2022-08-21T07:38:39;49579.47;;;-146.94;77.58
56737;BME280;42618;51.226;4.910;2022-08-21T07:41:27;49607.41;;;-146.94;77.91
56737;BME280;42618;51.226;4.910;2022-08-21T07:43:58;49535.63;;;-146.94;76.80
56737;BME280;42618;51.226;4.910;2022-08-21T07:46:26;49545.59;;;-146.94;76.46
56737;BME280;42618;51.226;4.910;2022-08-21T07:48:53;49571.50;;;-146.94;75.46
56737;BME280;42618;51.226;4.910;2022-08-21T07:51:22;49571.50;;;-146.94;74.86
56737;BME280;42618;51.226;4.910;2022-08-21T07:53:53;49567.53;;;-146.94;74.47
56737;BME280;42618;51.226;4.910;2022-08-21T07:56:21;49579.47;;;-146.94;74.84
56737;BME280;42618;51.226;4.910;2022-08-21T07:58:48;49561.53;;;-146.94;73.47
56737;BME280;42618;51.226;4.910;2022-08-21T08:01:15;49539.63;;;-146.94;73.73
56737;BME280;42618;51.226;4.910;2022-08-21T08:03:42;49547.59;;;-146.94;73.75
56737;BME280;42618;51.226;4.910;2022-08-21T08:06:09;49561.53;;;-146.94;73.42
56737;BME280;42618;51.226;4.910;2022-08-21T08:08:39;49529.66;;;-146.94;72.87
56737;BME280;42618;51.226;4.910;2022-08-21T08:11:08;49515.69;;;-146.94;72.57
56737;BME280;42618;51.226;4.910;2022-08-21T08:13:41;49519.69;;;-146.94;71.86
56737;BME280;42618;51.226;4.910;2022-08-21T08:16:09;49547.59;;;-146.94;71.62
56737;BME280;42618;51.226;4.910;2022-08-21T08:18:36;49557.56;;;-146.94;71.10
56737;BME280;42618;51.226;4.910;2022-08-21T08:21:03;49539.63;;;-146.94;70.66
56737;BME280;42618;51.226;4.910;2022-08-21T08:23:31;49551.56;;;-146.94;69.46
56737;BME280;42618;51.226;4.910;2022-08-21T08:25:58;49553.56;;;-146.94;69.54
56737;BME280;42618;51.226;4.910;2022-08-21T08:28:25;49567.53;;;-146.94;69.79
56737;BME280;42618;51.226;4.910;2022-08-21T08:30:53;49543.59;;;-146.94;70.49
56737;BME280;42618;51.226;4.910;2022-08-21T08:33:20;49543.59;;;-146.94;70.08
56737;BME280;42618;51.226;4.910;2022-08-21T08:35:49;49531.63;;;-146.94;69.94
56737;BME280;42618;51.226;4.910;2022-08-21T08:38:18;49539.63;;;-146.94;70.74
56737;BME280;42618;51.226;4.910;2022-08-21T08:41:16;49531.63;;;-146.94;70.96
56737;BME280;42618;51.226;4.910;2022-08-21T08:43:50;49511.72;;;-146.94;71.09
56737;BME280;42618;51.226;4.910;2022-08-21T08:46:26;49539.63;;;-146.94;71.25
56737;BME280;42618;51.226;4.910;2022-08-21T08:49:00;49541.59;;;-146.94;69.77
56737;BME280;42618;51.226;4.910;2022-08-21T08:54:08;49531.63;;;-146.94;68.15
56737;BME280;42618;51.226;4.910;2022-08-21T08:56:35;49535.63;;;-146.94;68.07
56737;BME280;42618;51.226;4.910;2022-08-21T08:59:23;49555.56;;;-146.94;67.02
56737;BME280;42618;51.226;4.910;2022-08-21T09:01:52;49511.72;;;-146.94;67.23
56737;BME280;42618;51.226;4.910;2022-08-21T09:04:25;49531.63;;;-146.94;66.69
56737;BME280;42618;51.226;4.910;2022-08-21T09:10:22;49529.66;;;-146.94;64.97
56737;BME280;42618;51.226;4.910;2022-08-21T09:13:06;49535.63;;;-146.94;64.72
56737;BME280;42618;51.226;4.910;2022-08-21T09:16:04;49529.66;;;-146.94;62.97
56737;BME280;42618;51.226;4.910;2022-08-21T09:24:32;49539.63;;;-146.94;62.29
56737;BME280;42618;51.226;4.910;2022-08-21T09:29:39;49491.78;;;-146.94;60.87
56737;BME280;42618;51.226;4.910;2022-08-21T09:32:16;49491.78;;;-146.94;61.32
56737;BME280;42618;51.226;4.910;2022-08-21T09:35:06;49487.78;;;-146.94;60.40
56737;BME280;42618;51.226;4.910;2022-08-21T09:37:44;49485.78;;;-146.94;61.01
56737;BME280;42618;51.226;4.910;2022-08-21T09:40:35;49521.69;;;-146.94;58.32
56737;BME280;42618;51.226;4.910;2022-08-21T09:43:16;49529.66;;;-146.94;57.04
56737;BME280;42618;51.226;4.910;2022-08-21T09:45:45;49511.72;;;-146.94;57.23
56737;BME280;42618;51.226;4.910;2022-08-21T09:50:41;49485.78;;;-146.94;54.83
56737;BME280;42618;51.226;4.910;2022-08-21T09:53:21;49479.81;;;-146.94;55.21
56737;BME280;42618;51.226;4.910;2022-08-21T09:55:53;49475.81;;;-146.94;53.66
56737;BME280;42618;51.226;4.910;2022-08-21T09:58:41;49463.88;;;-146.94;52.48
56737;BME280;42618;51.226;4.910;2022-08-21T10:01:14;49447.91;;;-146.94;52.74
56737;BME280;42618;51.226;4.910;2022-08-21T10:03:41;49439.94;;;-146.94;52.60
56737;BME280;42618;51.226;4.910;2022-08-21T10:06:09;49489.78;;;-146.94;52.56
56737;BME280;42618;51.226;4.910;2022-08-21T10:08:38;49477.81;;;-146.94;52.83
56737;BME280;42618;51.226;4.910;2022-08-21T10:11:12;49467.84;;;-146.94;52.77
56737;BME280;42618;51.226;4.910;2022-08-21T10:16:37;49453.91;;;-146.94;52.12
56737;BME280;42618;51.226;4.910;2022-08-21T10:19:14;49475.81;;;-146.94;52.75
56737;BME280;42618;51.226;4.910;2022-08-21T10:29:41;49481.81;;;-146.94;50.18
56737;BME280;42618;51.226;4.910;2022-08-21T10:35:02;49447.91;;;-146.94;50.77
56737;BME280;42618;51.226;4.910;2022-08-21T10:46:13;49495.75;;;-146.94;49.69
56737;BME280;42618;51.226;4.910;2022-08-21T10:54:17;49467.84;;;-146.94;48.80
56737;BME280;42618;51.226;4.910;2022-08-21T10:56:51;49431.97;;;-146.94;48.87
56737;BME280;42618;51.226;4.910;2022-08-21T11:04:50;49426.00;;;-146.94;47.96
56737;BME280;42618;51.226;4.910;2022-08-21T11:07:36;49418.00;;;-146.94;45.15
56737;BME280;42618;51.226;4.910;2022-08-21T11:12:58;49427.97;;;-146.94;44.61
56737;BME280;42618;51.226;4.910;2022-08-21T11:23:21;49427.97;;;-146.94;43.42
56737;BME280;42618;51.226;4.910;2022-08-21T11:25:55;49435.97;;;-146.94;43.92
56737;BME280;42618;51.226;4.910;2022-08-21T11:28:34;49416.03;;;-146.94;44.24
56737;BME280;42618;51.226;4.910;2022-08-21T11:34:00;49424.00;;;-146.94;44.99
56737;BME280;42618;51.226;4.910;2022-08-21T11:36:43;49451.91;;;-146.94;45.86
56737;BME280;42618;51.226;4.910;2022-08-21T11:50:26;49437.94;;;-146.94;45.81
56737;BME280;42618;51.226;4.910;2022-08-21T11:53:18;49429.97;;;-146.94;45.54
56737;BME280;42618;51.226;4.910;2022-08-21T11:55:52;49400.06;;;-146.94;45.21
56737;BME280;42618;51.226;4.910;2022-08-21T11:58:34;49416.03;;;-146.94;45.88
56737;BME280;42618;51.226;4.910;2022-08-21T12:01:18;49388.13;;;-146.94;42.13
56737;BME280;42618;51.226;4.910;2022-08-21T12:03:56;49384.13;;;-146.94;41.21
56737;BME280;42618;51.226;4.910;2022-08-21T12:06:33;49376.16;;;-146.94;40.87
56737;BME280;42618;51.226;4.910;2022-08-21T12:09:04;49400.06;;;-146.94;40.93
56737;BME280;42618;51.226;4.910;2022-08-21T12:11:32;49416.03;;;-146.94;39.78
56737;BME280;42618;51.226;4.910;2022-08-21T12:22:11;49420.00;;;-146.94;39.72
56737;BME280;42618;51.226;4.910;2022-08-21T12:24:48;49420.00;;;-146.94;38.96
56737;BME280;42618;51.226;4.910;2022-08-21T12:29:55;49398.09;;;-146.94;38.34
56737;BME280;42618;51.226;4.910;2022-08-21T12:32:29;49416.03;;;-146.94;39.23
56737;BME280;42618;51.226;4.910;2022-08-21T12:35:10;49396.09;;;-146.94;39.05
56737;BME280;42618;51.226;4.910;2022-08-21T12:38:04;49416.03;;;-146.94;39.00
56737;BME280;42618;51.226;4.910;2022-08-21T12:40:43;49386.13;;;-146.94;39.85
56737;BME280;42618;51.226;4.910;2022-08-21T12:43:16;49414.03;;;-146.94;40.94
56737;BME280;42618;51.226;4.910;2022-08-21T12:45:47;49372.16;;;-146.94;40.63
56737;BME280;42618;51.226;4.910;2022-08-21T12:48:25;49404.06;;;-146.94;38.95
56737;BME280;42618;51.226;4.910;2022-08-21T12:50:58;49382.13;;;-146.94;37.77
56737;BME280;42618;51.226;4.910;2022-08-21T12:53:37;49392.09;;;-146.94;38.10
56737;BME280;42618;51.226;4.910;2022-08-21T12:56:13;49414.03;;;-146.94;38.25
56737;BME280;42618;51.226;4.910;2022-08-21T12:58:45;49388.13;;;-146.94;38.92
56737;BME280;42618;51.226;4.910;2022-08-21T13:01:21;49388.13;;;-146.94;37.91
56737;BME280;42618;51.226;4.910;2022-08-21T13:03:53;49348.25;;;-146.94;37.22
56737;BME280;42618;51.226;4.910;2022-08-21T13:06:37;49372.16;;;-146.94;37.24
56737;BME280;42618;51.226;4.910;2022-08-21T13:09:07;49352.22;;;-146.94;36.26
56737;BME280;42618;51.226;4.910;2022-08-21T13:11:37;49408.06;;;-146.94;35.97
56737;BME280;42618;51.226;4.910;2022-08-21T13:14:14;49388.13;;;-146.94;36.83
56737;BME280;42618;51.226;4.910;2022-08-21T13:16:45;49418.00;;;-146.94;37.74
56737;BME280;42618;51.226;4.910;2022-08-21T13:19:17;49404.06;;;-146.94;37.97
56737;BME280;42618;51.226;4.910;2022-08-21T13:21:49;49410.03;;;-146.94;38.56
56737;BME280;42618;51.226;4.910;2022-08-21T13:24:24;49392.09;;;-146.94;39.36
56737;BME280;42618;51.226;4.910;2022-08-21T13:27:28;49396.09;;;-146.94;39.76
56737;BME280;42618;51.226;4.910;2022-08-21T13:32:34;49390.09;;;-146.94;38.30
56737;BME280;42618;51.226;4.910;2022-08-21T13:35:13;49368.19;;;-146.94;36.89
56737;BME280;42618;51.226;4.910;2022-08-21T13:37:42;49376.16;;;-146.94;37.87
56737;BME280;42618;51.226;4.910;2022-08-21T13:40:13;49360.22;;;-146.94;38.28
56737;BME280;42618;51.226;4.910;2022-08-21T13:42:42;49384.13;;;-146.94;37.46
56737;BME280;42618;51.226;4.910;2022-08-21T13:45:15;49368.19;;;-146.94;37.47
56737;BME280;42618;51.226;4.910;2022-08-21T13:47:43;49412.03;;;-146.94;38.03
56737;BME280;42618;51.226;4.910;2022-08-21T13:50:14;49408.06;;;-146.94;38.12
56737;BME280;42618;51.226;4.910;2022-08-21T13:52:49;49372.16;;;-146.94;37.64
56737;BME280;42618;51.226;4.910;2022-08-21T13:55:17;49388.13;;;-146.94;37.91
56737;BME280;42618;51.226;4.910;2022-08-21T13:57:44;49358.22;;;-146.94;37.43
56737;BME280;42618;51.226;4.910;2022-08-21T14:00:26;49364.19;;;-146.94;37.86
56737;BME280;42618;51.226;4.910;2022-08-21T14:03:00;49380.13;;;-146.94;38.86
56737;BME280;42618;51.226;4.910;2022-08-21T14:05:31;49366.19;;;-146.94;38.18
56737;BME280;42618;51.226;4.910;2022-08-21T14:08:08;49344.25;;;-146.94;36.46
56737;BME280;42618;51.226;4.910;2022-08-21T14:10:43;49320.34;;;-146.94;35.84
56737;BME280;42618;51.226;4.910;2022-08-21T14:13:27;49356.22;;;-146.94;36.00
56737;BME280;42618;51.226;4.910;2022-08-21T14:15:58;49376.16;;;-146.94;35.66
56737;BME280;42618;51.226;4.910;2022-08-21T14:18:25;49392.09;;;-146.94;37.06
56737;BME280;42618;51.226;4.910;2022-08-21T14:21:04;49402.06;;;-146.94;37.52
56737;BME280;42618;51.226;4.910;2022-08-21T14:23:31;49420.00;;;-146.94;38.02
56737;BME280;42618;51.226;4.910;2022-08-21T14:26:03;49356.22;;;-146.94;38.76
56737;BME280;42618;51.226;4.910;2022-08-21T14:28:32;49352.22;;;-146.94;39.35